Time;durP1;ratioP1;P1;durP2;ratioP2;P2;SDS_P1;SDS_P2;PMS_P1;PMS_P2;Temp;Humidity;BMP_temperature;BMP_pressure;BME280_temperature;BME280_humidity;BME280_pressure;Samples;Min_cycle;Max_cycle;Signal;HPM_P1;HPM_P2
2022/11/24 00:01:39;;;;;;;22.38;4.50;;;;;;;6.81;100.00;100187.03;5014882;28;20036;-59
2022/11/24 00:04:05;;;;;;;29.33;4.85;;;;;;;6.77;100.00;100188.34;5009762;28;20029;-56
2022/11/24 00:06:33;;;;;;;30.05;5.10;;;;;;;6.78;100.00;100195.25;5007715;28;20034;-56
2022/11/24 00:08:58;;;;;;;21.80;4.70;;;;;;;6.79;100.00;100196.06;5017574;28;20030;-59
2022/11/24 00:11:29;;;;;;;25.25;4.68;;;;;;;6.76;100.00;100199.03;5013358;28;20026;-57
2022/11/24 00:13:54;;;;;;;26.33;4.10;;;;;;;6.73;100.00;100190.41;5013739;28;20079;-56
2022/11/24 00:16:28;;;;;;;21.08;4.22;;;;;;;6.77;100.00;100198.88;5022060;28;20034;-58
2022/11/24 00:18:56;;;;;;;23.95;4.40;;;;;;;6.76;100.00;100205.09;5015489;28;20492;-57
2022/11/24 00:21:22;;;;;;;21.92;4.13;;;;;;;6.77;100.00;100212.06;5019571;28;20044;-59
2022/11/24 00:23:48;;;;;;;20.30;4.00;;;;;;;6.78;100.00;100218.97;5013458;28;20021;-57
2022/11/24 00:26:19;;;;;;;27.55;4.60;;;;;;;6.77;100.00;100212.06;5017433;28;20602;-56
2022/11/24 00:28:45;;;;;;;20.05;3.75;;;;;;;6.77;100.00;100217.31;5014311;28;20045;-59
2022/11/24 00:31:21;;;;;;;18.42;4.15;;;;;;;6.79;100.00;100225.06;5013232;28;20034;-55
2022/11/24 00:33:48;;;;;;;20.17;4.15;;;;;;;6.77;100.00;100219.97;5025498;28;20080;-57
2022/11/24 00:36:14;;;;;;;21.10;4.45;;;;;;;6.78;100.00;100215.50;5014566;28;20041;-56
2022/11/24 00:38:39;;;;;;;24.23;4.55;;;;;;;6.76;100.00;100223.53;5013597;28;20053;-58
2022/11/24 00:41:05;;;;;;;20.13;3.97;;;;;;;6.75;100.00;100211.34;5019846;28;20029;-58
2022/11/24 00:43:31;;;;;;;20.20;3.97;;;;;;;6.76;100.00;100220.09;5019720;28;20037;-60
2022/11/24 00:45:56;;;;;;;20.42;3.90;;;;;;;6.73;100.00;100221.22;5021031;28;20531;-58
2022/11/24 00:48:22;;;;;;;22.25;4.15;;;;;;;6.73;100.00;100226.50;5014591;28;20365;-56
2022/11/24 00:50:58;;;;;;;21.60;4.28;;;;;;;6.75;100.00;100229.81;5017401;28;20513;-58
2022/11/24 00:53:24;;;;;;;23.83;4.50;;;;;;;6.75;100.00;100232.44;5019729;28;20061;-56
2022/11/24 00:55:49;;;;;;;18.45;4.15;;;;;;;6.73;100.00;100232.56;5005079;28;20488;-61
2022/11/24 00:58:15;;;;;;;20.80;3.80;;;;;;;6.73;100.00;100237.03;5016710;28;20045;-57
2022/11/24 01:00:40;;;;;;;16.05;3.83;;;;;;;6.76;100.00;100226.19;5012962;28;20041;-58
2022/11/24 01:03:06;;;;;;;20.40;3.88;;;;;;;6.74;100.00;100236.06;5016260;28;20037;-56
2022/11/24 01:05:35;;;;;;;22.00;4.20;;;;;;;6.72;100.00;100240.66;5020503;28;20030;-57
2022/11/24 01:08:00;;;;;;;20.15;4.03;;;;;;;6.72;100.00;100243.28;5017102;28;20049;-57
2022/11/24 01:10:26;;;;;;;20.77;4.28;;;;;;;6.72;100.00;100245.94;5018942;28;20033;-57
2022/11/24 01:12:51;;;;;;;20.00;3.88;;;;;;;6.74;100.00;100254.50;5016518;28;20084;-57
2022/11/24 01:15:17;;;;;;;18.98;3.92;;;;;;;6.70;100.00;100256.63;5020364;28;20104;-57
2022/11/24 01:17:42;;;;;;;19.67;4.07;;;;;;;6.68;100.00;100249.84;5013519;28;20037;-57
2022/11/24 01:20:08;;;;;;;21.42;4.13;;;;;;;6.65;100.00;100250.16;5010778;28;20544;-58
2022/11/24 01:22:33;;;;;;;20.17;3.97;;;;;;;6.65;100.00;100255.41;5014782;28;20034;-57
2022/11/24 01:24:59;;;;;;;20.80;4.00;;;;;;;6.68;100.00;100257.75;5015587;28;20041;-58
2022/11/24 01:27:24;;;;;;;21.33;4.22;;;;;;;6.65;100.00;100250.16;5018470;28;20068;-59
2022/11/24 01:29:49;;;;;;;22.52;4.07;;;;;;;6.64;100.00;100253.75;5015644;28;20032;-55
2022/11/24 01:32:15;;;;;;;20.92;3.88;;;;;;;6.62;100.00;100260.97;5016859;28;20249;-56
2022/11/24 01:34:40;;;;;;;19.27;4.22;;;;;;;6.59;100.00;100262.94;5014553;28;20124;-59
2022/11/24 01:37:05;;;;;;;19.15;4.15;;;;;;;6.58;100.00;100265.72;5019397;28;20113;-57
2022/11/24 01:39:31;;;;;;;19.88;3.90;;;;;;;6.57;100.00;100266.69;5024331;28;20137;-57
2022/11/24 01:42:00;;;;;;;22.30;3.92;;;;;;;6.56;100.00;100263.22;5017679;28;20069;-58
2022/11/24 01:44:29;;;;;;;18.83;4.18;;;;;;;6.54;100.00;100266.97;5020964;28;20033;-59
2022/11/24 01:47:33;;;;;;;20.70;3.80;;;;;;;6.53;100.00;100268.81;5013857;28;20033;-57
2022/11/24 01:50:01;;;;;;;21.63;4.18;;;;;;;6.48;100.00;100270.22;5015747;28;20566;-56
2022/11/24 01:52:39;;;;;;;23.10;4.20;;;;;;;6.47;100.00;100272.03;5021740;28;20056;-59
2022/11/24 01:55:11;;;;;;;21.13;3.70;;;;;;;6.50;100.00;100284.91;5025763;28;20037;-56
2022/11/24 01:58:18;;;;;;;23.27;3.70;;;;;;;6.53;100.00;100283.78;5021086;28;20033;-56
2022/11/24 02:00:44;;;;;;;16.35;4.05;;;;;;;6.50;100.00;100290.16;5020846;28;20042;-57
2022/11/24 02:03:15;;;;;;;20.23;3.95;;;;;;;6.49;100.00;100285.03;5020674;28;20030;-59
2022/11/24 02:05:44;;;;;;;22.88;3.95;;;;;;;6.51;100.00;100294.44;5018128;28;20389;-56
2022/11/24 02:08:20;;;;;;;22.95;4.22;;;;;;;6.52;100.00;100290.03;5015967;28;20030;-57
2022/11/24 02:10:47;;;;;;;24.98;4.50;;;;;;;6.51;100.00;100297.09;5024595;28;20052;-57
2022/11/24 02:13:13;;;;;;;24.15;4.53;;;;;;;6.53;100.00;100297.78;5018403;28;20038;-57
2022/11/24 02:15:39;;;;;;;20.25;4.18;;;;;;;6.51;100.00;100299.72;5015054;28;20165;-56
2022/11/24 02:18:04;;;;;;;22.73;4.07;;;;;;;6.51;100.00;100302.34;5021429;28;20037;-57
2022/11/24 02:20:30;;;;;;;20.90;4.13;;;;;;;6.52;100.00;100304.00;5023158;28;20029;-58
2022/11/24 02:23:28;;;;;;;20.77;4.20;;;;;;;6.54;100.00;100307.34;5021043;28;20100;-57
2022/11/24 02:26:04;;;;;;;22.25;4.22;;;;;;;6.51;100.00;100314.72;5020130;28;20033;-58
2022/11/24 02:28:30;;;;;;;21.25;4.28;;;;;;;6.50;100.00;100308.59;5020345;28;20056;-59
2022/11/24 02:30:56;;;;;;;25.00;4.97;;;;;;;6.50;100.00;100311.22;5020336;28;20041;-58
2022/11/24 02:33:24;;;;;;;20.50;4.25;;;;;;;6.48;100.00;100307.94;5016337;28;20053;-58
2022/11/24 02:35:50;;;;;;;26.73;4.20;;;;;;;6.50;100.00;100315.69;5026118;28;20042;-56
2022/11/24 02:38:15;;;;;;;23.27;4.30;;;;;;;6.50;100.00;100311.22;5016803;28;20033;-59
2022/11/24 02:40:43;;;;;;;26.02;4.90;;;;;;;6.51;100.00;100317.34;5023426;28;20041;-57
2022/11/24 02:43:12;;;;;;;24.00;4.50;;;;;;;6.52;100.00;100313.72;5021925;28;20021;-57
2022/11/24 02:45:38;;;;;;;23.67;4.93;;;;;;;6.55;100.00;100314.25;5020499;28;20032;-57
2022/11/24 02:48:04;;;;;;;21.38;4.70;;;;;;;6.58;100.00;100324.50;5017227;28;20064;-58
2022/11/24 02:50:29;;;;;;;26.63;4.47;;;;;;;6.58;100.00;100327.13;5018506;28;20062;-57
2022/11/24 02:52:55;;;;;;;25.80;4.57;;;;;;;6.62;100.00;100324.19;5017027;28;20064;-57
2022/11/24 02:55:20;;;;;;;24.30;4.50;;;;;;;6.65;100.00;100326.56;5013765;28;20132;-57
2022/11/24 02:57:46;;;;;;;31.73;5.20;;;;;;;6.67;100.00;100324.59;5023316;28;20036;-57
2022/11/24 03:00:11;;;;;;;26.73;4.95;;;;;;;6.68;100.00;100329.72;5020489;28;20076;-56
2022/11/24 03:02:37;;;;;;;26.20;4.55;;;;;;;6.70;100.00;100332.19;5020597;28;20033;-57
2022/11/24 03:05:03;;;;;;;25.42;4.32;;;;;;;6.69;100.00;100326.09;5018964;28;20526;-58
2022/11/24 03:07:28;;;;;;;27.85;4.63;;;;;;;6.72;100.00;100335.53;5025985;28;20442;-57
2022/11/24 03:09:53;;;;;;;23.75;4.90;;;;;;;6.72;100.00;100335.53;5023863;28;20038;-58
2022/11/24 03:12:19;;;;;;;21.98;4.72;;;;;;;6.73;100.00;100347.72;5019480;28;20037;-57
2022/11/24 03:14:45;;;;;;;29.98;5.47;;;;;;;6.72;100.00;100336.34;5022340;28;20505;-56
2022/11/24 03:17:10;;;;;;;24.45;5.20;;;;;;;6.75;100.00;100347.56;5017761;28;20060;-57
2022/11/24 03:19:35;;;;;;;23.95;4.75;;;;;;;6.76;100.00;100342.13;5012957;28;20038;-59
2022/11/24 03:22:01;;;;;;;21.38;4.60;;;;;;;6.80;100.00;100346.13;5022782;28;20120;-57
2022/11/24 03:24:26;;;;;;;28.17;5.45;;;;;;;6.81;100.00;100347.78;5010374;28;20037;-58
2022/11/24 03:26:51;;;;;;;25.85;4.82;;;;;;;6.83;100.00;100337.94;5023631;28;20036;-59
2022/11/24 03:29:17;;;;;;;25.85;4.97;;;;;;;6.82;100.00;100353.91;5010567;28;20638;-57
2022/11/24 03:31:42;;;;;;;24.20;4.63;;;;;;;6.85;100.00;100357.06;5022969;28;20048;-56
2022/11/24 03:34:08;;;;;;;23.38;4.72;;;;;;;6.88;100.00;100349.81;5017464;28;20358;-57
2022/11/24 03:36:33;;;;;;;24.60;4.82;;;;;;;6.90;100.00;100347.91;5019209;28;20037;-59
2022/11/24 03:38:58;;;;;;;24.65;5.35;;;;;;;6.90;100.00;100348.69;5022816;28;20069;-57
2022/11/24 03:41:24;;;;;;;26.20;4.70;;;;;;;6.91;100.00;100352.19;5023828;28;20043;-57
2022/11/24 03:43:49;;;;;;;26.77;4.88;;;;;;;6.93;100.00;100355.47;5017768;28;20048;-56
2022/11/24 03:46:15;;;;;;;28.02;5.65;;;;;;;6.93;100.00;100347.56;5025996;28;20672;-57
2022/11/24 03:48:40;;;;;;;23.50;5.03;;;;;;;6.94;100.00;100351.88;5012507;28;20582;-55
2022/11/24 03:51:05;;;;;;;28.17;5.30;;;;;;;6.96;100.00;100350.75;5016400;28;20041;-58
2022/11/24 03:53:32;;;;;;;26.15;4.97;;;;;;;6.96;100.00;100353.38;5013825;28;20039;-56
2022/11/24 03:55:58;;;;;;;24.20;4.90;;;;;;;6.98;100.00;100351.44;5022904;28;20042;-57
2022/11/24 03:58:24;;;;;;;28.48;5.28;;;;;;;7.01;100.00;100355.59;5028454;28;20115;-57
2022/11/24 04:00:51;;;;;;;26.83;5.00;;;;;;;7.01;100.00;100345.03;5018638;28;20109;-59
2022/11/24 04:03:18;;;;;;;22.55;4.38;;;;;;;7.02;100.00;100357.25;5011039;28;20057;-58
2022/11/24 04:05:43;;;;;;;26.70;4.60;;;;;;;7.00;100.00;100349.47;5011931;28;20112;-57
2022/11/24 04:08:09;;;;;;;27.42;4.90;;;;;;;7.01;100.00;100355.59;5015861;28;20136;-57
2022/11/24 04:10:37;;;;;;;26.77;4.75;;;;;;;7.02;100.00;100357.25;5009963;28;20481;-57
2022/11/24 04:13:04;;;;;;;22.00;4.80;;;;;;;7.04;100.00;100363.19;5012166;28;20041;-56
2022/11/24 04:15:29;;;;;;;26.08;5.15;;;;;;;7.05;100.00;100372.75;5019690;28;20045;-59
2022/11/24 04:17:55;;;;;;;28.25;4.95;;;;;;;7.06;100.00;100382.31;5019005;28;20037;-58
2022/11/24 04:20:21;;;;;;;25.00;4.68;;;;;;;7.06;100.00;100386.75;5014189;28;20370;-57
2022/11/24 04:22:46;;;;;;;31.20;5.38;;;;;;;7.10;100.00;100401.28;5020909;28;20030;-58
2022/11/24 04:25:12;;;;;;;22.60;4.40;;;;;;;7.17;100.00;100401.53;5020288;28;20469;-57
2022/11/24 04:27:38;;;;;;;22.55;5.15;;;;;;;7.17;100.00;100406.81;5020338;28;20075;-57
2022/11/24 04:30:05;;;;;;;29.75;4.40;;;;;;;7.13;100.00;100417.66;5019166;28;20511;-58
2022/11/24 04:32:30;;;;;;;21.85;4.13;;;;;;;7.18;100.00;100419.00;5019767;28;20120;-56
2022/11/24 04:34:55;;;;;;;21.42;4.63;;;;;;;7.16;100.00;100415.69;5015534;28;20273;-59
2022/11/24 04:37:20;;;;;;;25.38;4.25;;;;;;;7.09;100.00;100416.28;5020546;28;20033;-59
2022/11/24 04:39:46;;;;;;;22.13;4.57;;;;;;;7.03;100.00;100416.91;5017364;28;20049;-55
2022/11/24 04:42:12;;;;;;;21.23;3.88;;;;;;;7.01;100.00;100418.84;5015876;28;20029;-57
2022/11/24 04:44:37;;;;;;;22.65;4.00;;;;;;;7.02;100.00;100420.50;5017537;28;20491;-58
2022/11/24 04:47:03;;;;;;;18.52;3.50;;;;;;;6.97;100.00;100425.41;5017328;28;20034;-59
2022/11/24 04:49:28;;;;;;;19.63;3.50;;;;;;;6.94;100.00;100425.69;5014492;28;20393;-57
2022/11/24 04:51:54;;;;;;;18.35;3.50;;;;;;;6.90;100.00;100430.41;5013658;28;20119;-57
2022/11/24 04:54:20;;;;;;;16.05;2.97;;;;;;;6.95;100.00;100424.69;5022489;28;20091;-59
2022/11/24 04:56:49;;;;;;;13.73;2.70;;;;;;;6.88;100.00;100423.63;5016988;28;20144;-56
2022/11/24 04:59:15;;;;;;;16.55;2.92;;;;;;;6.85;100.00;100425.59;5014558;28;20110;-57
2022/11/24 05:01:42;;;;;;;13.40;2.67;;;;;;;6.83;100.00;100432.84;5008065;28;20072;-56
2022/11/24 05:04:10;;;;;;;13.60;2.65;;;;;;;6.84;100.00;100423.94;5011792;28;20025;-57
2022/11/24 05:06:35;;;;;;;9.88;2.50;;;;;;;6.79;100.00;100428.81;5019494;28;20033;-60
2022/11/24 05:09:01;;;;;;;10.45;2.33;;;;;;;6.76;100.00;100421.19;5017445;28;20076;-55
2022/11/24 05:11:26;;;;;;;13.25;2.83;;;;;;;6.74;100.00;100425.78;5014899;28;20045;-57
2022/11/24 05:13:52;;;;;;;10.95;2.42;;;;;;;6.77;100.00;100432.56;5012008;28;20062;-57
2022/11/24 05:16:17;;;;;;;10.70;2.30;;;;;;;6.77;100.00;100433.41;5029422;28;20032;-58
2022/11/24 05:18:42;;;;;;;13.77;2.58;;;;;;;6.73;100.00;100447.84;5018752;28;20043;-58
2022/11/24 05:21:08;;;;;;;10.15;2.33;;;;;;;6.72;100.00;100440.94;5022118;28;20029;-58
2022/11/24 05:23:33;;;;;;;10.73;2.55;;;;;;;6.70;100.00;100448.97;5026729;28;20041;-57
2022/11/24 05:26:02;;;;;;;10.73;2.22;;;;;;;6.68;100.00;100450.94;5017672;28;20030;-56
2022/11/24 05:28:27;;;;;;;10.23;2.45;;;;;;;6.69;100.00;100457.00;5022377;28;20033;-58
2022/11/24 05:30:53;;;;;;;12.00;2.50;;;;;;;6.69;100.00;100451.75;5018134;28;20510;-59
2022/11/24 05:33:19;;;;;;;8.55;2.42;;;;;;;6.67;100.00;100453.72;5022356;28;20459;-57
2022/11/24 05:35:45;;;;;;;11.20;2.75;;;;;;;6.65;100.00;100451.22;5022534;28;20095;-56
2022/11/24 05:38:10;;;;;;;13.23;2.83;;;;;;;6.67;100.00;100459.78;5027212;28;20033;-58
2022/11/24 05:40:36;;;;;;;15.45;2.80;;;;;;;6.69;100.00;100464.91;5016688;28;20056;-56
2022/11/24 05:43:03;;;;;;;14.77;3.13;;;;;;;6.70;100.00;100463.94;5013651;28;20037;-57
2022/11/24 05:45:28;;;;;;;19.15;3.58;;;;;;;6.70;100.00;100471.84;5015251;28;20063;-58
2022/11/24 05:47:53;;;;;;;20.60;3.50;;;;;;;6.70;100.00;100470.06;5014862;28;20041;-57
2022/11/24 05:50:21;;;;;;;22.92;4.07;;;;;;;6.72;100.00;100472.56;5012528;28;20025;-58
2022/11/24 05:52:47;;;;;;;22.60;4.18;;;;;;;6.74;100.00;100470.59;5015370;28;20037;-60
2022/11/24 05:55:14;;;;;;;24.08;4.32;;;;;;;6.76;100.00;100476.53;5014480;28;20037;-57
2022/11/24 05:57:39;;;;;;;18.60;3.88;;;;;;;6.80;100.00;100483.19;5017588;28;20480;-57
2022/11/24 06:00:08;;;;;;;15.40;3.58;;;;;;;6.85;100.00;100488.00;5014903;28;20044;-57
2022/11/24 06:02:34;;;;;;;21.77;3.83;;;;;;;6.84;100.00;100489.84;5016038;28;20125;-57
2022/11/24 06:04:59;;;;;;;18.23;3.72;;;;;;;6.91;100.00;100497.97;5014450;28;20041;-57
2022/11/24 06:07:24;;;;;;;17.55;3.60;;;;;;;6.95;100.00;100509.91;5013613;28;20034;-57
2022/11/24 06:09:50;;;;;;;20.27;3.80;;;;;;;6.97;100.00;100512.41;5016341;28;20061;-57
2022/11/24 06:12:15;;;;;;;20.98;3.85;;;;;;;6.99;100.00;100515.69;5012166;28;20034;-58
2022/11/24 06:14:40;;;;;;;15.70;3.35;;;;;;;7.08;100.00;100517.47;5010471;28;20037;-57
2022/11/24 06:17:06;;;;;;;15.23;3.42;;;;;;;7.00;100.00;100512.94;5014475;28;20599;-56
2022/11/24 06:19:32;;;;;;;16.52;3.30;;;;;;;7.05;100.00;100524.84;5014304;28;20025;-57
2022/11/24 06:21:57;;;;;;;14.15;3.47;;;;;;;7.01;100.00;100532.22;5020356;28;20581;-57
2022/11/24 06:24:23;;;;;;;15.38;3.35;;;;;;;7.04;100.00;100537.19;5013697;28;20076;-57
2022/11/24 06:26:48;;;;;;;14.35;3.25;;;;;;;7.04;100.00;100545.09;5014652;28;20656;-59
2022/11/24 06:29:13;;;;;;;14.27;2.97;;;;;;;7.08;100.00;100553.53;5008645;28;20468;-56
2022/11/24 06:31:39;;;;;;;12.32;2.92;;;;;;;7.02;100.00;100551.50;5012547;28;20037;-57
2022/11/24 06:34:06;;;;;;;11.45;2.67;;;;;;;7.02;100.00;100562.88;5025153;28;20465;-57
2022/11/24 06:36:32;;;;;;;9.95;2.35;;;;;;;7.04;100.00;100560.91;5013365;28;20084;-58
2022/11/24 06:39:00;;;;;;;12.18;2.70;;;;;;;7.11;100.00;100567.28;5016055;28;20049;-58
2022/11/24 06:41:25;;;;;;;13.00;2.60;;;;;;;7.08;99.54;100575.47;5014456;28;20477;-58
2022/11/24 06:43:50;;;;;;;12.85;2.60;;;;;;;7.06;100.00;100580.06;5011011;28;20032;-58
2022/11/24 06:46:15;;;;;;;10.05;2.38;;;;;;;7.06;100.00;100590.59;5011588;28;20420;-56
2022/11/24 06:48:41;;;;;;;9.48;2.42;;;;;;;7.02;100.00;100598.94;5012577;28;20029;-57
2022/11/24 06:51:09;;;;;;;9.90;2.30;;;;;;;7.02;100.00;100605.06;5015640;28;20042;-57
2022/11/24 06:53:36;;;;;;;9.20;2.28;;;;;;;7.01;100.00;100603.41;5009169;28;20034;-57
2022/11/24 06:56:04;;;;;;;10.45;2.40;;;;;;;6.96;100.00;100610.91;5014626;28;20399;-57
2022/11/24 06:58:29;;;;;;;11.85;2.47;;;;;;;6.90;100.00;100606.22;5007476;28;20136;-59
2022/11/24 07:00:55;;;;;;;11.15;2.53;;;;;;;6.88;100.00;100613.41;5010881;28;20113;-58
2022/11/24 07:03:20;;;;;;;13.10;2.50;;;;;;;6.80;100.00;100616.75;5011900;28;20374;-59
2022/11/24 07:05:45;;;;;;;9.82;2.03;;;;;;;6.76;100.00;100631.22;5013265;28;20030;-57
2022/11/24 07:08:11;;;;;;;10.38;2.38;;;;;;;6.76;100.00;100642.56;5010554;28;20025;-57
2022/11/24 07:10:36;;;;;;;10.13;2.10;;;;;;;6.71;100.00;100645.63;5015980;28;20546;-58
2022/11/24 07:13:02;;;;;;;10.73;2.67;;;;;;;6.69;100.00;100650.22;5013519;28;20318;-59
2022/11/24 07:15:29;;;;;;;14.48;2.35;;;;;;;6.66;100.00;100657.59;5012941;28;20111;-56
2022/11/24 07:17:54;;;;;;;7.38;2.42;;;;;;;6.65;100.00;100658.56;5011047;28;20037;-57
2022/11/24 07:20:19;;;;;;;12.02;2.80;;;;;;;6.67;100.00;100669.78;5019944;28;20053;-58
2022/11/24 07:22:45;;;;;;;8.82;2.25;;;;;;;6.68;100.00;100671.44;5011888;28;20061;-58
2022/11/24 07:25:12;;;;;;;14.05;2.40;;;;;;;6.68;100.00;100677.56;5013391;28;20355;-58
2022/11/24 07:27:38;;;;;;;10.73;2.50;;;;;;;6.68;100.00;100687.25;5015262;28;20477;-57
2022/11/24 07:30:04;;;;;;;10.18;2.20;;;;;;;6.65;100.00;100682.28;5015644;28;20033;-60
2022/11/24 07:32:29;;;;;;;10.13;2.42;;;;;;;6.65;100.00;100690.19;5010465;28;20045;-57
2022/11/24 07:34:54;;;;;;;10.40;2.45;;;;;;;6.64;100.00;100697.25;5012258;28;20094;-57
2022/11/24 07:37:20;;;;;;;11.70;2.42;;;;;;;6.66;100.00;100700.56;5007187;28;20034;-57
2022/11/24 07:39:45;;;;;;;10.00;2.50;;;;;;;6.65;100.00;100700.72;5008190;28;20044;-58
2022/11/24 07:42:10;;;;;;;12.15;2.55;;;;;;;6.61;100.00;100701.97;5011506;28;20029;-57
2022/11/24 07:44:36;;;;;;;11.23;2.30;;;;;;;6.60;100.00;100701.13;5008264;28;20113;-58
2022/11/24 07:47:01;;;;;;;7.22;2.25;;;;;;;6.59;100.00;100705.56;5012646;28;20025;-58
2022/11/24 07:49:27;;;;;;;7.47;2.08;;;;;;;6.59;100.00;100708.19;5015162;28;20029;-58
2022/11/24 07:51:52;;;;;;;10.32;2.42;;;;;;;6.56;100.00;100711.09;5014779;28;20116;-57
2022/11/24 07:54:17;;;;;;;15.13;2.40;;;;;;;6.54;100.00;100713.06;5020615;28;20029;-59
2022/11/24 07:56:43;;;;;;;9.18;2.28;;;;;;;6.63;100.00;100721.09;5022952;28;20052;-58
2022/11/24 07:59:08;;;;;;;10.32;2.85;;;;;;;6.61;100.00;100723.84;5007897;28;20072;-59
2022/11/24 08:01:33;;;;;;;10.88;2.30;;;;;;;6.61;100.00;100733.56;5013332;28;20067;-59
2022/11/24 08:04:00;;;;;;;13.25;2.65;;;;;;;6.65;100.00;100734.97;5015950;28;20045;-61
2022/11/24 08:06:28;;;;;;;9.15;2.28;;;;;;;6.58;100.00;100734.69;5020022;28;20037;-59
2022/11/24 08:08:54;;;;;;;9.90;2.28;;;;;;;6.57;100.00;100739.09;5017807;28;20033;-59
2022/11/24 08:11:19;;;;;;;9.73;2.33;;;;;;;6.57;100.00;100739.09;5008084;28;20050;-61
2022/11/24 08:13:45;;;;;;;12.30;2.40;;;;;;;6.57;100.00;100744.38;5020776;28;20069;-59
2022/11/24 08:16:13;;;;;;;11.98;2.50;;;;;;;6.57;100.00;100756.72;5016156;28;20034;-59
2022/11/24 08:18:40;;;;;;;11.68;2.35;;;;;;;6.57;100.00;100760.19;5021718;28;20033;-59
2022/11/24 08:21:06;;;;;;;10.25;2.60;;;;;;;6.57;100.00;100770.72;5020852;28;20026;-60
2022/11/24 08:23:31;;;;;;;12.25;2.75;;;;;;;6.59;100.00;100776.72;5019200;28;20037;-59
2022/11/24 08:26:03;;;;;;;10.90;2.85;;;;;;;6.64;100.00;100780.72;5021196;28;20481;-60
2022/11/24 08:28:28;;;;;;;12.05;2.72;;;;;;;6.67;100.00;100775.19;5023860;28;20021;-59
2022/11/24 08:31:04;;;;;;;7.80;2.58;;;;;;;6.75;100.00;100777.94;5028857;28;20820;-60
2022/11/24 08:33:29;;;;;;;12.73;2.58;;;;;;;6.75;100.00;100783.22;5016122;28;20041;-58
2022/11/24 08:35:55;;;;;;;13.70;2.50;;;;;;;6.73;100.00;100785.19;5020470;28;20064;-58
2022/11/24 08:38:20;;;;;;;11.30;2.63;;;;;;;6.77;100.00;100786.56;5022168;28;20112;-60
2022/11/24 08:40:46;;;;;;;14.65;2.97;;;;;;;6.79;99.97;100794.31;5012070;28;20045;-58
2022/11/24 08:43:11;;;;;;;14.32;2.80;;;;;;;6.86;99.09;100809.47;5024442;28;20037;-57
2022/11/24 08:45:36;;;;;;;12.02;2.80;;;;;;;6.85;99.89;100805.16;5018114;28;20825;-58
2022/11/24 08:48:02;;;;;;;12.18;2.78;;;;;;;6.90;99.27;100802.09;5019986;28;20040;-58
2022/11/24 08:50:27;;;;;;;12.15;2.72;;;;;;;6.92;99.40;100801.97;5014113;28;20498;-60
2022/11/24 08:52:52;;;;;;;12.43;2.95;;;;;;;6.90;99.75;100823.19;5019151;28;20040;-60
2022/11/24 08:55:18;;;;;;;11.38;2.90;;;;;;;6.93;99.51;100827.34;5020497;28;20082;-57
2022/11/24 08:57:43;;;;;;;14.15;2.90;;;;;;;7.03;98.60;100832.63;5010697;28;20111;-58
2022/11/24 09:00:10;;;;;;;14.32;3.10;;;;;;;7.02;98.88;100838.88;5021080;28;20045;-58
2022/11/24 09:02:35;;;;;;;16.00;3.13;;;;;;;7.03;99.12;100841.38;5012262;28;20041;-58
2022/11/24 09:05:00;;;;;;;11.07;2.90;;;;;;;7.14;97.52;100845.69;5015809;28;20103;-57
2022/11/24 09:07:26;;;;;;;11.27;2.72;;;;;;;7.09;98.75;100848.75;5021034;28;20044;-58
2022/11/24 09:09:51;;;;;;;13.60;3.28;;;;;;;7.09;98.60;100848.75;5018058;28;20057;-61
2022/11/24 09:12:16;;;;;;;14.57;3.50;;;;;;;7.14;98.34;100850.97;5015342;28;20104;-57
2022/11/24 09:14:41;;;;;;;17.95;3.50;;;;;;;7.16;97.97;100849.03;5022478;28;20370;-58
2022/11/24 09:17:07;;;;;;;17.35;3.33;;;;;;;7.17;97.99;100852.50;5011272;28;20109;-57
2022/11/24 09:19:32;;;;;;;16.25;3.47;;;;;;;7.18;98.34;100862.06;5014481;28;20029;-59
2022/11/24 09:21:57;;;;;;;17.10;3.63;;;;;;;7.21;97.39;100861.78;5017459;28;20112;-58
2022/11/24 09:24:24;;;;;;;16.38;3.50;;;;;;;7.22;98.16;100863.47;5018587;28;20159;-58
2022/11/24 09:26:49;;;;;;;23.20;3.97;;;;;;;7.26;98.10;100864.84;5009413;28;20060;-61
2022/11/24 09:29:14;;;;;;;18.98;3.75;;;;;;;7.32;97.81;100874.84;5018601;28;20072;-61
2022/11/24 09:31:40;;;;;;;18.42;3.55;;;;;;;7.30;98.78;100875.97;5010222;28;20030;-58
2022/11/24 09:34:08;;;;;;;14.52;3.70;;;;;;;7.42;97.58;100879.28;5015872;28;20052;-58
2022/11/24 09:36:34;;;;;;;20.75;4.22;;;;;;;7.39;97.96;100885.66;5021949;28;20045;-58
2022/11/24 09:38:59;;;;;;;19.17;3.50;;;;;;;7.47;96.95;100877.06;5021754;28;20037;-59
2022/11/24 09:42:03;;;;;;;19.38;4.32;;;;;;;7.55;97.10;100887.72;5019966;28;20028;-60
2022/11/24 09:44:56;;;;;;;16.17;3.60;;;;;;;7.59;96.21;100886.50;5019367;28;20037;-57
2022/11/24 09:47:28;;;;;;;15.75;3.58;;;;;;;7.59;97.35;100889.13;5014158;28;20033;-58
2022/11/24 09:49:59;;;;;;;22.15;4.10;;;;;;;7.59;97.85;100886.50;5015845;28;20043;-60
2022/11/24 09:53:02;;;;;;;13.25;3.40;;;;;;;7.69;97.67;100901.50;5021493;28;20469;-58
2022/11/24 09:55:45;;;;;;;18.08;4.18;;;;;;;7.80;95.42;100915.34;5010671;28;20068;-58
2022/11/24 09:58:17;;;;;;;23.40;3.70;;;;;;;7.75;96.66;100908.84;5012639;28;20056;-60
2022/11/24 10:00:43;;;;;;;14.70;3.50;;;;;;;7.79;96.84;100918.13;5011545;28;20047;-61
2022/11/24 10:03:22;;;;;;;19.70;3.70;;;;;;;7.80;96.57;100903.97;5005135;28;20129;-58
2022/11/24 10:05:50;;;;;;;17.45;3.60;;;;;;;7.84;95.77;100910.63;5011800;28;20133;-60
2022/11/24 10:08:31;;;;;;;19.48;3.90;;;;;;;7.91;96.41;100917.00;5022914;28;20622;-59
2022/11/24 10:10:59;;;;;;;15.95;3.80;;;;;;;7.88;95.29;100917.28;5020619;28;20037;-58
2022/11/24 10:13:56;;;;;;;17.52;3.92;;;;;;;8.03;95.86;100924.75;5024335;28;20041;-60
2022/11/24 10:16:33;;;;;;;17.35;3.75;;;;;;;7.98;95.73;100921.75;5018654;28;20022;-58
2022/11/24 10:19:11;;;;;;;20.77;4.60;;;;;;;8.09;94.75;100929.47;5014196;28;20144;-58
2022/11/24 10:22:22;;;;;;;16.92;3.78;;;;;;;8.07;96.04;100934.06;5017288;28;20041;-60
2022/11/24 10:25:02;;;;;;;21.13;4.43;;;;;;;8.11;95.54;100948.66;5007425;28;20528;-59
2022/11/24 10:27:34;;;;;;;21.67;5.60;;;;;;;8.17;94.26;100937.53;5017447;28;20033;-58
2022/11/24 10:30:00;;;;;;;21.20;5.05;;;;;;;8.23;93.85;100945.88;5017670;28;20657;-59
2022/11/24 10:32:33;;;;;;;25.52;4.30;;;;;;;8.28;92.53;100948.88;5014711;28;20041;-58
2022/11/24 10:35:01;;;;;;;;;;;;;;;8.38;93.49;100949.69;5012894;28;20037;-60
2022/11/24 10:37:38;;;;;;;16.17;4.38;;;;;;;8.33;93.29;100951.94;5019185;28;20389;-57
2022/11/24 10:40:16;;;;;;;14.90;3.80;;;;;;;8.38;93.35;100949.69;5029717;28;20064;-60
2022/11/24 10:42:42;;;;;;;18.88;3.90;;;;;;;8.44;92.15;100949.13;5011898;28;20494;-60
2022/11/24 10:45:12;;;;;;;17.08;3.92;;;;;;;8.45;92.24;100953.41;5020848;28;20037;-58
2022/11/24 10:47:38;;;;;;;19.27;3.92;;;;;;;8.45;93.21;100950.78;5019132;28;20037;-59
2022/11/24 10:50:08;;;;;;;19.65;3.97;;;;;;;8.48;92.38;100947.84;5013307;28;20033;-57
2022/11/24 10:52:41;;;;;;;19.70;3.70;;;;;;;8.51;92.80;100952.03;5018234;28;20040;-58
2022/11/24 10:55:07;;;;;;;;;;;;;;;8.77;90.90;100954.03;5012107;28;20034;-59
2022/11/24 10:57:37;;;;;;;19.77;3.80;;;;;;;8.59;91.19;100952.16;5014079;28;19921;-59
2022/11/24 11:00:29;;;;;;;19.27;3.85;;;;;;;8.62;93.29;100951.03;5014629;28;20032;-58
2022/11/24 11:03:17;;;;;;;18.40;4.07;;;;;;;8.54;92.49;100943.00;5004752;28;20049;-61
2022/11/24 11:05:47;;;;;;;17.40;3.75;;;;;;;8.60;91.42;100950.34;5012668;28;20022;-57
2022/11/24 11:08:13;;;;;;;14.02;3.38;;;;;;;8.65;91.91;100950.75;5007405;28;20083;-58
2022/11/24 11:10:39;;;;;;;17.15;3.53;;;;;;;8.68;92.36;100950.44;5015776;28;20473;-60
2022/11/24 11:14:06;;;;;;;14.13;3.47;;;;;;;8.74;93.30;100946.41;5010104;28;20064;-60
2022/11/24 11:16:42;;;;;;;18.52;3.88;;;;;;;8.82;90.83;100945.63;4974948;28;20054;-58
2022/11/24 11:19:26;;;;;;;20.63;3.88;;;;;;;8.82;91.08;100946.47;5014786;28;20032;-57
2022/11/24 11:22:11;;;;;;;22.33;3.92;;;;;;;8.86;90.96;100942.56;5024017;28;20583;-57
2022/11/24 11:24:38;;;;;;;17.60;4.05;;;;;;;8.90;90.34;100943.09;5010899;28;20041;-57